WetterOnline ( https://www.wetteronline.de )

Wetter aktuell Teuschnitz

Aktuelles Wetter: Neuhaus (851m)

6-stündlich | Neueste Meldungen
Ortszeit Temperatur Wetter
So, 25.02. 7:00 -1.6° C leicht bewölkt
So, 25.02. 1:00 -0.6° C bewölkt
Sa, 24.02. 19:00 0.3° C fast wolkenlos
Sa, 24.02. 13:00 0.1° C bedeckt
Sa, 24.02. 7:00 -2.1° C bewölkt
Sa, 24.02. 1:00 -0.8° C wolkig
Fr, 23.02. 19:00 -0.1° C bedeckt
Fr, 23.02. 13:00 0.9° C bewölkt
Ortszeit Temperatur Wetter
So, 25.02. 12:00 2.4° C wolkig
So, 25.02. 11:50 2.4° C wolkig
So, 25.02. 11:40 2.8° C wolkig
So, 25.02. 11:30 3.2° C bedeckt
So, 25.02. 11:20 3.2° C bedeckt
So, 25.02. 11:10 3.2° C bedeckt
So, 25.02. 11:00 2.5° C bedeckt
So, 25.02. 10:30 2.2° C bedeckt
So, 25.02. 10:00 1.6° C bewölkt
So, 25.02. 9:30 0.9° C bewölkt
So, 25.02. 9:00 0.2° C wolkenlos
Ortszeit Relative Feuchte Sichtweite
So, 25.02. 7:00 96% 14 km
So, 25.02. 1:00 93% >70 km
Sa, 24.02. 19:00 84% >70 km
Sa, 24.02. 13:00 96% 30 km
Sa, 24.02. 7:00 96% 30 km
Sa, 24.02. 1:00 94% 30 km
Fr, 23.02. 19:00 88% 55 km
Fr, 23.02. 13:00 85% 65 km
Ortszeit Relative Feuchte Sichtweite
So, 25.02. 12:00 77% 65 km
So, 25.02. 11:50 77% -
So, 25.02. 11:40 75% -
So, 25.02. 11:30 72% 65 km
So, 25.02. 11:20 72% -
So, 25.02. 11:10 73% -
So, 25.02. 11:00 74% >70 km
So, 25.02. 10:30 75% 55 km
So, 25.02. 10:00 79% >70 km
So, 25.02. 9:30 84% 60 km
So, 25.02. 9:00 90% 55 km
Ortszeit Niederschlagsmenge Niederschlagsart
So, 25.02. 7:00 0.0 l/m2 in 12 Std. -
So, 25.02. 1:00 0.0 l/m2 in 6 Std. -
Sa, 24.02. 19:00 0.1 l/m2 in 12 Std. Schnee
Sa, 24.02. 13:00 0.1 l/m2 in 6 Std. Schnee, Sprühregen
Sa, 24.02. 7:00 0.0 l/m2 in 12 Std. -
Sa, 24.02. 1:00 0.0 l/m2 in 6 Std. -
Fr, 23.02. 19:00 0.0 l/m2 in 12 Std. -
Fr, 23.02. 13:00 0.0 l/m2 in 6 Std. -
Ortszeit Niederschlagsmenge Niederschlagsart
So, 25.02. 12:00 <0.05 l/m2 in 1 Std. Schnee, Niederschlag
So, 25.02. 11:50 keine Meldung -
So, 25.02. 11:40 keine Meldung -
So, 25.02. 11:30 0.0 l/m2 in 30 Min -
So, 25.02. 11:20 keine Meldung -
So, 25.02. 11:10 keine Meldung -
So, 25.02. 11:00 0.0 l/m2 in 1 Std. -
So, 25.02. 10:30 0.0 l/m2 in 30 Min -
So, 25.02. 10:00 0.0 l/m2 in 1 Std. -
So, 25.02. 9:30 0.0 l/m2 in 30 Min -
So, 25.02. 9:00 0.0 l/m2 in 1 Std. -
Ortszeit Stärke Spitze Richtung
km/h Bft. km/h Grad Sektor
So, 25.02. 7:00 11 2 26 180° S
So, 25.02. 1:00 9 2 33 190° S
Sa, 24.02. 19:00 11 2 44 210° SW
Sa, 24.02. 13:00 22 4 48 200° S
Sa, 24.02. 7:00 9 2 20 180° S
Sa, 24.02. 1:00 14 3 29 170° S
Fr, 23.02. 19:00 13 3 41 180° S
Fr, 23.02. 13:00 20 4 54 200° S
Ortszeit Stärke Spitze Richtung
km/h Bft. km/h Grad Sektor
So, 25.02. 12:00 22 4 43 210° SW
So, 25.02. 11:50 22 4 - 210° SW
So, 25.02. 11:40 22 4 - 210° SW
So, 25.02. 11:30 24 4 43 210° SW
So, 25.02. 11:20 24 4 - 210° SW
So, 25.02. 11:10 26 4 - 210° SW
So, 25.02. 11:00 18 3 47 200° S
So, 25.02. 10:30 22 4 47 200° S
So, 25.02. 10:00 25 4 43 190° S
So, 25.02. 9:30 22 4 36 190° S
So, 25.02. 9:00 14 3 25 160° S
Ortszeit Untergrenze Bedeckung Gattung
total tief tief mittel hoch
So, 25.02. 7:00 30 m 2/8 2/8 - - -
So, 25.02. 1:00 6600 m 7/8 6/8 - - -
Sa, 24.02. 19:00 7200 m 1/8 0/8 - - -
Sa, 24.02. 13:00 60 m 8/8 8/8 - - -
Sa, 24.02. 7:00 60 m 7/8 7/8 - - -
Sa, 24.02. 1:00 240 m 7/8 5/8 - - -
Fr, 23.02. 19:00 5400 m 8/8 8/8 - - -
Fr, 23.02. 13:00 330 m 8/8 7/8 - - -
Ortszeit Bedeckungsgrad in Achtel und Wolkenuntergrenze
So, 25.02. 12:00 2(510m) 5(1800m) 6(3900m)
So, 25.02. 11:50 2(510m) 5(1800m) 6(3900m)
So, 25.02. 11:40 6
So, 25.02. 11:30 8(5400m)
So, 25.02. 11:20 8(5400m)
So, 25.02. 11:10 8
So, 25.02. 11:00 8(5400m)
So, 25.02. 10:30 8(5700m) 8(6600m)
So, 25.02. 10:00 7(6300m)
So, 25.02. 9:30 7(6300m)
So, 25.02. 9:00 keine Wolken
Ortszeit Stationsdruck (hPa) Tendenz (hPa in 3 Std.)
So, 25.02. 7:00 907 - 0,4
So, 25.02. 1:00 908 + 0,2
Sa, 24.02. 19:00 907 + 1,3
Sa, 24.02. 13:00 904 + 1,4
Sa, 24.02. 7:00 901 + 0,9
Sa, 24.02. 1:00 901 + 0,2
Fr, 23.02. 19:00 900 + 0,4
Fr, 23.02. 13:00 900 + 1,1
Ortszeit Stationsdruck (hPa) Tendenz (hPa in 3 Std.)
So, 25.02. 12:00 907 - 0,2
So, 25.02. 11:50 907 keine Meldung
So, 25.02. 11:40 907 keine Meldung
So, 25.02. 11:30 906 - 0,5
So, 25.02. 11:20 906 keine Meldung
So, 25.02. 11:10 906 keine Meldung
So, 25.02. 11:00 907 - 0,4
So, 25.02. 10:30 907 - 0,5
So, 25.02. 10:00 907 - 0,5
So, 25.02. 9:30 907 - 0,4
So, 25.02. 9:00 907 - 0,2
Ortszeit Schneehöhe (cm)
So, 25.02. 7:00 0
So, 25.02. 1:00 0
Sa, 24.02. 19:00 0
Sa, 24.02. 13:00 0
Sa, 24.02. 7:00 0
Sa, 24.02. 1:00 0
Fr, 23.02. 19:00 0
Fr, 23.02. 13:00 0
Ortszeit Schneehöhe (cm)
So, 25.02. 12:00 0
So, 25.02. 11:50 0
So, 25.02. 11:40 -
So, 25.02. 11:30 0
So, 25.02. 11:20 0
So, 25.02. 11:10 -
So, 25.02. 11:00 0
So, 25.02. 10:30 0
So, 25.02. 10:00 0
So, 25.02. 9:30 0
So, 25.02. 9:00 0
Link zu dieser Seite / Seite empfehlen

Das Wetter in ...